Time;durP1;ratioP1;P1;durP2;ratioP2;P2;SDS_P1;SDS_P2;PMS_P1;PMS_P2;Temp;Humidity;BMP_temperature;BMP_pressure;BME280_temperature;BME280_humidity;BME280_pressure;Samples;Min_cycle;Max_cycle;Signal;HPM_P1;HPM_P2
2021/07/29 00:00:44;;;;;;;14.63;3.95;;;;;;;;;;5068035;28;38590;-76
2021/07/29 00:03:10;;;;;;;14.18;4.18;;;;;;;;;;5068160;28;38439;-76
2021/07/29 00:05:37;;;;;;;14.00;3.15;;;;;;;;;;5057558;28;39256;-75
2021/07/29 00:08:04;;;;;;;12.52;3.97;;;;;;;;;;5067778;28;38420;-75
2021/07/29 00:10:31;;;;;;;11.45;3.75;;;;;;;;;;5068650;28;38287;-76
2021/07/29 00:12:57;;;;;;;14.75;4.07;;;;;;;;;;5068429;28;36185;-76
2021/07/29 00:15:24;;;;;;;11.95;3.85;;;;;;;;;;5065999;28;40585;-74
2021/07/29 00:20:18;;;;;;;19.30;4.10;;;;;;;;;;5068076;28;39134;-75
2021/07/29 00:22:45;;;;;;;10.93;3.42;;;;;;;;;;5069631;28;36705;-76
2021/07/29 00:25:12;;;;;;;15.70;4.47;;;;;;;;;;5065529;28;39738;-76
2021/07/29 00:27:40;;;;;;;10.25;3.45;;;;;;;;;;5066048;28;39770;-76
2021/07/29 00:30:09;;;;;;;18.58;4.35;;;;;;;;;;5053812;28;40613;-75
2021/07/29 00:32:36;;;;;;;14.13;4.05;;;;;;;;;;5067917;28;49069;-75
2021/07/29 00:35:07;;;;;;;16.80;4.07;;;;;;;;;;5071689;28;39199;-75
2021/07/29 00:37:36;;;;;;;15.95;3.67;;;;;;;;;;5064556;28;48670;-75
2021/07/29 00:40:03;;;;;;;19.83;4.10;;;;;;;;;;5063454;28;37935;-76
2021/07/29 00:42:30;;;;;;;16.83;4.00;;;;;;;;;;5072903;28;47265;-76
2021/07/29 00:44:56;;;;;;;17.92;3.90;;;;;;;;;;5067480;28;39840;-76
2021/07/29 00:47:26;;;;;;;16.65;4.35;;;;;;;;;;5068380;28;38458;-75
2021/07/29 00:49:53;;;;;;;11.15;3.80;;;;;;;;;;5038410;28;39207;-75
2021/07/29 00:52:22;;;;;;;15.05;4.07;;;;;;;;;;5057230;28;37017;-76
2021/07/29 00:54:50;;;;;;;25.42;5.53;;;;;;;;;;5067973;28;39365;-76
2021/07/29 00:57:17;;;;;;;18.92;4.80;;;;;;;;;;5039053;28;38812;-76
2021/07/29 00:59:43;;;;;;;13.32;3.95;;;;;;;;;;5025005;28;42059;-76
2021/07/29 01:02:10;;;;;;;14.55;4.00;;;;;;;;;;5042323;28;36581;-76
2021/07/29 01:04:36;;;;;;;18.23;3.72;;;;;;;;;;5068048;28;38480;-75
2021/07/29 01:07:05;;;;;;;23.08;4.32;;;;;;;;;;5065872;28;40071;-76
2021/07/29 01:09:31;;;;;;;23.23;4.80;;;;;;;;;;5068817;28;39120;-76
2021/07/29 01:11:58;;;;;;;23.20;4.03;;;;;;;;;;5064865;28;35952;-76
2021/07/29 01:14:24;;;;;;;19.83;4.72;;;;;;;;;;5053925;28;38930;-76
2021/07/29 01:16:51;;;;;;;14.63;4.00;;;;;;;;;;5053355;28;38651;-76
2021/07/29 01:19:19;;;;;;;20.58;4.78;;;;;;;;;;5065157;28;40628;-76
2021/07/29 01:21:45;;;;;;;20.58;4.50;;;;;;;;;;5048994;28;37037;-76
2021/07/29 01:24:11;;;;;;;13.40;4.05;;;;;;;;;;5054993;28;38878;-76
2021/07/29 01:26:38;;;;;;;18.85;4.70;;;;;;;;;;5033742;28;37791;-75
2021/07/29 01:29:04;;;;;;;19.10;3.85;;;;;;;;;;5048066;28;37883;-76
2021/07/29 01:31:30;;;;;;;14.48;3.63;;;;;;;;;;5041351;28;38025;-76
2021/07/29 01:33:57;;;;;;;17.92;4.68;;;;;;;;;;5026470;28;39643;-78
2021/07/29 01:36:24;;;;;;;19.83;4.82;;;;;;;;;;5029420;28;39583;-76
2021/07/29 01:38:50;;;;;;;23.85;4.35;;;;;;;;;;5049535;28;38775;-75
2021/07/29 01:41:17;;;;;;;18.42;4.43;;;;;;;;;;5046886;28;37658;-77
2021/07/29 01:43:44;;;;;;;16.00;3.75;;;;;;;;;;5067054;28;37629;-77
2021/07/29 01:46:10;;;;;;;12.18;2.72;;;;;;;;;;5035290;28;39801;-78
2021/07/29 01:48:36;;;;;;;14.43;2.40;;;;;;;;;;5064934;28;37823;-78
2021/07/29 01:51:03;;;;;;;9.10;2.22;;;;;;;;;;5066527;28;37110;-78
2021/07/29 01:53:29;;;;;;;11.38;1.85;;;;;;;;;;5068542;28;38631;-77
2021/07/29 01:55:56;;;;;;;10.02;1.77;;;;;;;;;;5046909;28;38837;-77
2021/07/29 01:58:22;;;;;;;11.35;1.52;;;;;;;;;;5066264;28;38933;-78
2021/07/29 02:00:53;;;;;;;8.88;1.45;;;;;;;;;;5066489;28;35705;-78
2021/07/29 02:03:19;;;;;;;12.52;1.67;;;;;;;;;;5066794;28;39905;-78
2021/07/29 02:05:46;;;;;;;7.95;1.33;;;;;;;;;;5066867;28;38752;-77
2021/07/29 02:08:12;;;;;;;7.82;1.58;;;;;;;;;;5037625;28;37478;-78
2021/07/29 02:10:39;;;;;;;8.30;1.92;;;;;;;;;;5039198;28;36813;-77
2021/07/29 02:13:05;;;;;;;9.73;1.27;;;;;;;;;;5025264;28;42164;-77
2021/07/29 02:15:32;;;;;;;7.13;1.25;;;;;;;;;;5046167;28;39410;-78
2021/07/29 02:17:59;;;;;;;5.93;1.25;;;;;;;;;;5047708;28;38812;-77
2021/07/29 02:20:28;;;;;;;6.57;1.30;;;;;;;;;;5032483;28;37817;-77
2021/07/29 02:22:54;;;;;;;7.03;1.60;;;;;;;;;;5017526;28;39197;-78
2021/07/29 02:25:21;;;;;;;4.07;1.27;;;;;;;;;;5050222;28;38099;-78
2021/07/29 02:27:47;;;;;;;6.10;1.38;;;;;;;;;;5046350;28;36994;-77
2021/07/29 02:30:14;;;;;;;8.57;1.80;;;;;;;;;;5044772;28;37033;-78
2021/07/29 02:32:40;;;;;;;6.68;1.10;;;;;;;;;;5047217;28;38828;-78
2021/07/29 02:35:07;;;;;;;6.40;1.38;;;;;;;;;;5059432;28;39963;-75
2021/07/29 02:37:34;;;;;;;5.57;1.27;;;;;;;;;;5061801;28;39269;-76
2021/07/29 02:40:00;;;;;;;5.90;1.92;;;;;;;;;;5062747;28;36353;-75
2021/07/29 02:42:27;;;;;;;5.85;1.48;;;;;;;;;;5060426;28;39160;-77
2021/07/29 02:44:56;;;;;;;8.15;1.67;;;;;;;;;;5061960;28;41229;-77
2021/07/29 02:47:23;;;;;;;7.22;1.40;;;;;;;;;;5045646;28;38700;-77
2021/07/29 02:49:49;;;;;;;8.23;1.73;;;;;;;;;;5049035;28;37967;-77
2021/07/29 02:52:15;;;;;;;13.27;2.67;;;;;;;;;;5049148;28;39824;-78
2021/07/29 02:54:43;;;;;;;8.13;2.28;;;;;;;;;;5066677;28;40168;-78
2021/07/29 02:57:10;;;;;;;11.75;2.30;;;;;;;;;;5055779;28;38829;-78
2021/07/29 02:59:37;;;;;;;11.07;3.20;;;;;;;;;;5046032;28;38807;-78
2021/07/29 03:02:03;;;;;;;10.02;2.38;;;;;;;;;;5036854;28;40095;-78
2021/07/29 03:04:29;;;;;;;15.20;2.92;;;;;;;;;;5049389;28;38729;-78
2021/07/29 03:06:58;;;;;;;10.02;2.65;;;;;;;;;;5066212;28;37468;-78
2021/07/29 03:09:24;;;;;;;9.73;3.20;;;;;;;;;;5065407;28;37767;-78
2021/07/29 03:11:51;;;;;;;17.30;3.38;;;;;;;;;;5065563;28;38726;-75
2021/07/29 03:14:19;;;;;;;13.50;3.45;;;;;;;;;;5049726;28;38973;-75
2021/07/29 03:16:45;;;;;;;22.23;4.53;;;;;;;;;;5049819;28;38749;-75
2021/07/29 03:19:12;;;;;;;24.17;5.10;;;;;;;;;;5048908;28;37865;-75
2021/07/29 03:21:38;;;;;;;20.63;4.05;;;;;;;;;;5064260;28;39827;-75
2021/07/29 03:24:04;;;;;;;24.48;4.28;;;;;;;;;;5050031;28;38323;-76
2021/07/29 03:26:31;;;;;;;21.00;4.85;;;;;;;;;;5067686;28;38367;-75
2021/07/29 03:28:57;;;;;;;25.50;5.03;;;;;;;;;;5070299;28;36731;-75
2021/07/29 03:31:23;;;;;;;23.63;4.97;;;;;;;;;;5068594;28;38493;-75
2021/07/29 03:33:50;;;;;;;29.63;5.53;;;;;;;;;;5068651;28;39043;-75
2021/07/29 03:36:16;;;;;;;23.90;4.43;;;;;;;;;;5065299;28;36960;-76
2021/07/29 03:38:42;;;;;;;19.92;4.75;;;;;;;;;;5051748;28;36093;-75
2021/07/29 03:41:10;;;;;;;23.65;4.90;;;;;;;;;;5067038;28;39670;-76
2021/07/29 03:43:36;;;;;;;15.75;4.05;;;;;;;;;;5069982;28;38569;-76
2021/07/29 03:46:05;;;;;;;16.70;4.38;;;;;;;;;;5067635;28;37099;-76
2021/07/29 03:48:31;;;;;;;23.05;5.40;;;;;;;;;;5068739;28;37158;-76
2021/07/29 03:50:57;;;;;;;17.88;4.05;;;;;;;;;;5071268;28;39777;-76
2021/07/29 03:53:24;;;;;;;21.98;4.53;;;;;;;;;;5067574;28;37179;-76
2021/07/29 03:55:50;;;;;;;26.98;4.88;;;;;;;;;;5050209;28;37079;-76
2021/07/29 03:58:16;;;;;;;15.90;3.75;;;;;;;;;;5067726;28;37670;-76
2021/07/29 04:00:43;;;;;;;25.08;4.53;;;;;;;;;;5049132;28;37967;-76
2021/07/29 04:03:09;;;;;;;24.05;4.53;;;;;;;;;;5068475;28;39276;-76
2021/07/29 04:05:35;;;;;;;19.15;5.43;;;;;;;;;;5049635;28;37194;-76
2021/07/29 04:08:02;;;;;;;22.50;3.75;;;;;;;;;;5050566;28;37267;-76
2021/07/29 04:10:28;;;;;;;23.25;4.05;;;;;;;;;;5048554;28;37428;-76
2021/07/29 04:12:54;;;;;;;13.65;4.13;;;;;;;;;;5075113;28;38657;-76
2021/07/29 04:15:21;;;;;;;20.20;3.50;;;;;;;;;;5059566;28;38781;-76
2021/07/29 04:17:47;;;;;;;20.48;3.55;;;;;;;;;;5076218;28;37535;-76
2021/07/29 04:20:13;;;;;;;14.75;3.80;;;;;;;;;;5066575;28;39719;-76
2021/07/29 04:22:40;;;;;;;17.63;4.32;;;;;;;;;;5069145;28;39572;-76
2021/07/29 04:25:06;;;;;;;16.17;3.88;;;;;;;;;;5049870;28;36941;-76
2021/07/29 04:27:33;;;;;;;15.00;3.22;;;;;;;;;;5067455;28;39551;-76
2021/07/29 04:29:59;;;;;;;21.10;4.55;;;;;;;;;;5067493;28;37730;-76
2021/07/29 04:32:25;;;;;;;16.52;3.67;;;;;;;;;;5067707;28;39656;-76
2021/07/29 04:34:52;;;;;;;17.17;3.65;;;;;;;;;;5070371;28;38233;-76
2021/07/29 04:37:18;;;;;;;16.30;4.15;;;;;;;;;;5065220;28;36859;-76
2021/07/29 04:39:44;;;;;;;17.98;3.20;;;;;;;;;;5067451;28;38028;-76
2021/07/29 04:42:11;;;;;;;11.20;2.67;;;;;;;;;;5065692;28;39360;-75
2021/07/29 04:44:37;;;;;;;13.05;3.05;;;;;;;;;;5065795;28;38200;-76
2021/07/29 04:47:04;;;;;;;11.25;2.80;;;;;;;;;;5067526;28;36939;-76
2021/07/29 04:49:31;;;;;;;13.52;2.50;;;;;;;;;;5067419;28;40087;-76
2021/07/29 04:51:57;;;;;;;9.52;2.25;;;;;;;;;;5067741;28;38998;-76
2021/07/29 04:54:23;;;;;;;13.15;2.63;;;;;;;;;;5067224;28;38247;-76
2021/07/29 04:56:50;;;;;;;18.25;3.20;;;;;;;;;;5067078;28;36981;-76
2021/07/29 04:59:16;;;;;;;9.57;3.00;;;;;;;;;;5064895;28;38851;-76
2021/07/29 05:01:42;;;;;;;11.52;2.35;;;;;;;;;;5067810;28;39491;-75
2021/07/29 05:04:10;;;;;;;14.57;2.88;;;;;;;;;;5066875;28;39196;-76
2021/07/29 05:06:37;;;;;;;14.43;3.17;;;;;;;;;;5067576;28;36717;-75
2021/07/29 05:09:04;;;;;;;13.80;3.25;;;;;;;;;;5049566;28;37802;-76
2021/07/29 05:11:31;;;;;;;16.75;3.35;;;;;;;;;;5065683;28;38342;-76
2021/07/29 05:13:57;;;;;;;20.00;3.75;;;;;;;;;;5049115;28;39935;-76
2021/07/29 05:16:26;;;;;;;16.30;3.05;;;;;;;;;;5048059;28;36824;-75
2021/07/29 05:18:52;;;;;;;18.05;3.38;;;;;;;;;;5067829;28;38781;-76
2021/07/29 05:21:19;;;;;;;13.98;3.85;;;;;;;;;;5055894;28;38376;-76
2021/07/29 05:23:45;;;;;;;23.00;4.10;;;;;;;;;;5069196;28;38206;-76
2021/07/29 05:26:16;;;;;;;18.45;3.65;;;;;;;;;;5065439;28;37576;-75
2021/07/29 05:28:42;;;;;;;18.98;3.90;;;;;;;;;;5065291;28;38584;-76
2021/07/29 05:31:12;;;;;;;16.48;4.00;;;;;;;;;;5065164;28;40000;-76
2021/07/29 05:33:38;;;;;;;19.55;3.88;;;;;;;;;;5068473;28;38957;-76
2021/07/29 05:36:05;;;;;;;17.73;3.80;;;;;;;;;;5056433;28;35814;-76
2021/07/29 05:38:32;;;;;;;16.30;3.40;;;;;;;;;;5063144;28;39413;-76
2021/07/29 05:41:03;;;;;;;14.48;3.42;;;;;;;;;;5047465;28;38530;-76
2021/07/29 05:43:29;;;;;;;13.18;2.83;;;;;;;;;;5045685;28;47834;-76
2021/07/29 05:46:03;;;;;;;19.40;3.42;;;;;;;;;;5047274;28;37051;-76
2021/07/29 05:48:30;;;;;;;25.10;3.95;;;;;;;;;;5050890;28;49208;-76
2021/07/29 05:50:59;;;;;;;11.57;3.70;;;;;;;;;;5055481;28;39670;-76
2021/07/29 05:53:25;;;;;;;14.80;3.17;;;;;;;;;;5064034;28;38460;-76
2021/07/29 05:56:00;;;;;;;16.08;2.65;;;;;;;;;;5048536;28;38263;-76
2021/07/29 05:58:26;;;;;;;15.32;3.42;;;;;;;;;;5046463;28;39669;-76
2021/07/29 06:00:53;;;;;;;15.60;3.67;;;;;;;;;;5060688;28;38768;-77
2021/07/29 06:03:20;;;;;;;13.68;4.40;;;;;;;;;;5046215;28;39186;-76
2021/07/29 06:05:46;;;;;;;14.18;3.30;;;;;;;;;;5047182;28;37182;-76
2021/07/29 06:08:13;;;;;;;16.80;3.05;;;;;;;;;;5037938;28;39831;-77
2021/07/29 06:10:40;;;;;;;13.85;2.70;;;;;;;;;;5048952;28;37432;-76
2021/07/29 06:13:06;;;;;;;13.30;2.53;;;;;;;;;;5028621;28;41063;-74
2021/07/29 06:15:33;;;;;;;13.50;3.40;;;;;;;;;;5058622;28;37850;-76
2021/07/29 06:18:00;;;;;;;11.00;2.67;;;;;;;;;;5068494;28;40060;-75
2021/07/29 06:20:27;;;;;;;14.38;3.40;;;;;;;;;;5046991;28;39791;-75
2021/07/29 06:22:54;;;;;;;17.08;2.90;;;;;;;;;;5049385;28;39156;-75
2021/07/29 06:25:20;;;;;;;11.30;3.28;;;;;;;;;;5065178;28;37971;-75
2021/07/29 06:27:48;;;;;;;14.15;2.60;;;;;;;;;;5050325;28;39700;-75
2021/07/29 06:30:15;;;;;;;12.35;2.80;;;;;;;;;;5064561;28;39729;-74
2021/07/29 06:32:42;;;;;;;15.40;3.45;;;;;;;;;;5066624;28;40873;-76
2021/07/29 06:35:08;;;;;;;11.02;2.67;;;;;;;;;;5055261;28;38469;-75
2021/07/29 06:37:35;;;;;;;18.40;2.92;;;;;;;;;;5065675;28;39934;-77
2021/07/29 06:40:01;;;;;;;12.07;2.72;;;;;;;;;;5068012;28;38705;-75
2021/07/29 06:42:28;;;;;;;9.35;2.70;;;;;;;;;;5048291;28;39646;-75
2021/07/29 06:44:57;;;;;;;11.77;2.90;;;;;;;;;;5068397;28;36778;-75
2021/07/29 06:47:24;;;;;;;12.80;2.70;;;;;;;;;;5037822;28;41533;-75
2021/07/29 06:49:53;;;;;;;10.20;2.45;;;;;;;;;;5065781;28;38399;-76
2021/07/29 06:52:19;;;;;;;10.93;3.00;;;;;;;;;;5047334;28;37451;-76
2021/07/29 06:54:45;;;;;;;10.25;2.47;;;;;;;;;;5049817;28;39546;-75
2021/07/29 06:57:14;;;;;;;8.52;2.15;;;;;;;;;;5064984;28;38918;-76
2021/07/29 06:59:41;;;;;;;12.32;2.50;;;;;;;;;;5064434;28;38760;-76
2021/07/29 07:02:07;;;;;;;15.93;2.90;;;;;;;;;;5065806;28;37813;-76
2021/07/29 07:04:33;;;;;;;14.20;2.70;;;;;;;;;;5049401;28;37280;-75
2021/07/29 07:07:02;;;;;;;15.90;3.20;;;;;;;;;;5044063;28;38936;-75
2021/07/29 07:09:32;;;;;;;12.05;2.58;;;;;;;;;;5038028;28;47620;-76
2021/07/29 07:11:58;;;;;;;9.15;2.55;;;;;;;;;;5065333;28;39212;-76
2021/07/29 07:14:24;;;;;;;15.35;3.25;;;;;;;;;;5065046;28;38283;-76
2021/07/29 07:16:51;;;;;;;11.93;2.38;;;;;;;;;;5066086;28;41150;-75
2021/07/29 07:19:17;;;;;;;14.60;2.70;;;;;;;;;;5063828;28;39226;-76
2021/07/29 07:21:43;;;;;;;11.55;2.80;;;;;;;;;;5049579;28;39096;-77
2021/07/29 07:24:10;;;;;;;11.07;2.65;;;;;;;;;;5066309;28;36932;-76
2021/07/29 07:26:36;;;;;;;10.02;2.50;;;;;;;;;;5043301;28;41651;-75
2021/07/29 07:29:03;;;;;;;11.18;2.00;;;;;;;;;;5068036;28;39393;-76
2021/07/29 07:31:37;;;;;;;7.90;1.75;;;;;;;;;;5015241;28;47322;-76
2021/07/29 07:34:03;;;;;;;7.78;1.85;;;;;;;;;;5042973;28;37316;-76
2021/07/29 07:36:30;;;;;;;7.32;1.85;;;;;;;;;;5066608;28;39700;-76
2021/07/29 07:39:02;;;;;;;5.75;1.85;;;;;;;;;;5053136;28;37672;-77
2021/07/29 07:41:28;;;;;;;6.22;1.55;;;;;;;;;;5050305;28;49390;-76
2021/07/29 07:43:55;;;;;;;9.73;2.10;;;;;;;;;;5068487;28;39549;-76
2021/07/29 07:46:21;;;;;;;8.30;1.80;;;;;;;;;;5068811;28;38787;-76
2021/07/29 07:48:48;;;;;;;9.60;1.98;;;;;;;;;;5069425;28;39169;-76
2021/07/29 07:51:14;;;;;;;10.85;2.53;;;;;;;;;;5033147;28;41412;-77
2021/07/29 07:53:41;;;;;;;6.55;1.80;;;;;;;;;;5035477;28;37367;-75
2021/07/29 07:56:13;;;;;;;14.85;2.20;;;;;;;;;;5023583;28;39060;-75
2021/07/29 07:58:39;;;;;;;;;;;;;;;;;;5073388;28;37668;-75
2021/07/29 08:01:06;;;;;;;10.40;2.22;;;;;;;;;;5069926;28;38931;-75
2021/07/29 08:03:35;;;;;;;7.63;1.63;;;;;;;;;;5069376;28;36431;-75
2021/07/29 08:06:02;;;;;;;6.60;1.42;;;;;;;;;;5040977;28;39447;-75
2021/07/29 08:08:29;;;;;;;6.03;1.80;;;;;;;;;;5059322;28;38739;-75
2021/07/29 08:10:55;;;;;;;6.32;1.67;;;;;;;;;;5070354;28;38194;-75
2021/07/29 08:13:22;;;;;;;5.30;1.88;;;;;;;;;;5052741;28;37471;-76
2021/07/29 08:15:48;;;;;;;10.20;1.85;;;;;;;;;;5051214;28;39783;-75
2021/07/29 08:18:15;;;;;;;8.18;1.80;;;;;;;;;;5060047;28;39634;-75
2021/07/29 08:20:44;;;;;;;8.25;1.80;;;;;;;;;;5050865;28;37622;-77
2021/07/29 08:23:16;;;;;;;9.13;1.88;;;;;;;;;;5050037;28;37509;-76
2021/07/29 08:25:43;;;;;;;6.97;1.70;;;;;;;;;;5059221;28;40071;-76
2021/07/29 08:28:10;;;;;;;6.60;1.90;;;;;;;;;;5068946;28;39450;-76
2021/07/29 08:30:37;;;;;;;7.97;1.80;;;;;;;;;;5067596;28;38487;-76
2021/07/29 08:33:10;;;;;;;9.52;2.03;;;;;;;;;;5068189;28;37078;-77
2021/07/29 08:35:37;;;;;;;7.18;1.60;;;;;;;;;;5068069;28;39182;-77
2021/07/29 08:38:06;;;;;;;7.30;2.13;;;;;;;;;;5067045;28;39488;-77
2021/07/29 08:40:33;;;;;;;9.27;1.77;;;;;;;;;;5068336;28;37875;-76
2021/07/29 08:43:00;;;;;;;7.32;2.10;;;;;;;;;;5069815;28;37866;-78
2021/07/29 08:45:30;;;;;;;7.53;1.70;;;;;;;;;;5068551;28;47529;-77
2021/07/29 08:47:57;;;;;;;6.05;1.75;;;;;;;;;;5069879;28;41046;-77
2021/07/29 08:50:24;;;;;;;11.63;2.13;;;;;;;;;;5068423;28;38208;-76
2021/07/29 08:52:53;;;;;;;7.18;1.77;;;;;;;;;;5070407;28;37569;-76
2021/07/29 08:55:20;;;;;;;11.43;1.90;;;;;;;;;;5054419;28;39791;-77
2021/07/29 08:57:46;;;;;;;8.45;1.80;;;;;;;;;;5028979;28;39528;-77
2021/07/29 09:00:13;;;;;;;7.15;2.05;;;;;;;;;;5067415;28;38781;-77
2021/07/29 09:02:43;;;;;;;5.70;1.75;;;;;;;;;;5071000;28;37221;-78
2021/07/29 09:05:14;;;;;;;12.93;2.08;;;;;;;;;;5051080;28;38479;-77
2021/07/29 09:07:41;;;;;;;8.60;1.95;;;;;;;;;;5071649;28;40684;-78
2021/07/29 09:10:21;;;;;;;7.38;2.03;;;;;;;;;;5059654;28;37994;-77
2021/07/29 09:13:05;;;;;;;10.20;2.00;;;;;;;;;;5051574;28;36420;-78
2021/07/29 09:15:32;;;;;;;9.00;2.20;;;;;;;;;;5066652;28;48494;-77
2021/07/29 09:17:59;;;;;;;8.23;2.28;;;;;;;;;;5070481;28;38490;-78
2021/07/29 09:20:26;;;;;;;9.07;1.83;;;;;;;;;;5065803;28;38393;-76
2021/07/29 09:22:53;;;;;;;13.45;2.20;;;;;;;;;;5053145;28;35954;-77
2021/07/29 09:25:25;;;;;;;8.23;2.20;;;;;;;;;;5066614;28;39047;-77
2021/07/29 09:27:52;;;;;;;7.93;1.92;;;;;;;;;;5068704;28;39115;-76
2021/07/29 09:30:18;;;;;;;8.82;2.00;;;;;;;;;;5064645;28;38316;-77
2021/07/29 09:32:52;;;;;;;6.35;1.80;;;;;;;;;;5068595;28;36634;-76
2021/07/29 09:35:38;;;;;;;10.90;2.72;;;;;;;;;;5039790;28;39780;-77
2021/07/29 09:38:06;;;;;;;9.60;2.47;;;;;;;;;;5069571;28;40491;-76
2021/07/29 09:41:01;;;;;;;11.05;3.00;;;;;;;;;;5065883;28;39748;-77
2021/07/29 09:43:32;;;;;;;8.30;2.00;;;;;;;;;;5059286;28;49051;-76
2021/07/29 09:46:00;;;;;;;8.73;1.85;;;;;;;;;;5064177;28;39751;-76
2021/07/29 09:48:29;;;;;;;8.38;2.22;;;;;;;;;;5063847;28;39821;-77
2021/07/29 09:50:59;;;;;;;7.97;2.50;;;;;;;;;;5067782;28;38453;-77
2021/07/29 09:53:35;;;;;;;7.97;1.80;;;;;;;;;;5066679;28;37905;-76
2021/07/29 09:56:07;;;;;;;7.13;1.95;;;;;;;;;;5067050;28;39793;-77
2021/07/29 09:58:35;;;;;;;7.68;1.88;;;;;;;;;;5061762;28;48984;-79
2021/07/29 10:01:02;;;;;;;12.75;1.90;;;;;;;;;;5067311;28;39349;-77
2021/07/29 10:03:28;;;;;;;6.75;1.88;;;;;;;;;;5042298;28;49284;-77
2021/07/29 10:06:00;;;;;;;4.47;1.65;;;;;;;;;;5040613;28;40873;-77
2021/07/29 10:08:30;;;;;;;10.57;1.70;;;;;;;;;;5048649;28;41269;-77
2021/07/29 10:10:58;;;;;;;5.65;1.80;;;;;;;;;;5068298;28;38086;-76
2021/07/29 10:13:37;;;;;;;10.07;2.80;;;;;;;;;;5058581;28;36854;-77
2021/07/29 10:16:07;;;;;;;7.32;1.70;;;;;;;;;;5067002;28;39860;-77
2021/07/29 10:18:52;;;;;;;5.57;1.42;;;;;;;;;;5068575;28;39893;-76
2021/07/29 10:21:23;;;;;;;3.85;1.38;;;;;;;;;;5045265;28;40850;-77
2021/07/29 10:24:10;;;;;;;7.72;1.85;;;;;;;;;;5047029;28;37872;-78
2021/07/29 10:26:55;;;;;;;7.18;1.98;;;;;;;;;;5047358;28;48972;-78
2021/07/29 10:29:26;;;;;;;7.20;1.90;;;;;;;;;;5027355;28;38344;-77
2021/07/29 10:31:57;;;;;;;6.43;1.75;;;;;;;;;;5058620;28;38268;-78
2021/07/29 10:34:28;;;;;;;8.77;1.75;;;;;;;;;;5062421;28;37748;-77
2021/07/29 10:36:55;;;;;;;7.22;1.65;;;;;;;;;;5038408;28;40304;-77
2021/07/29 10:39:22;;;;;;;5.57;1.67;;;;;;;;;;5051106;28;39202;-76
2021/07/29 10:41:52;;;;;;;6.90;1.27;;;;;;;;;;5029357;28;40006;-78
2021/07/29 10:44:34;;;;;;;6.07;1.45;;;;;;;;;;5046349;28;37531;-77
2021/07/29 10:47:02;;;;;;;5.82;1.50;;;;;;;;;;5060663;28;41728;-77
2021/07/29 10:49:49;;;;;;;8.82;1.95;;;;;;;;;;5033614;28;47366;-78
2021/07/29 10:52:16;;;;;;;7.75;2.33;;;;;;;;;;5045158;28;38510;-77
2021/07/29 10:54:44;;;;;;;6.82;1.85;;;;;;;;;;5045527;28;38221;-77
2021/07/29 10:57:12;;;;;;;12.02;2.17;;;;;;;;;;5044685;28;39197;-77
2021/07/29 10:59:48;;;;;;;6.25;1.88;;;;;;;;;;5055918;28;38756;-77
2021/07/29 11:02:18;;;;;;;11.18;2.20;;;;;;;;;;5038765;28;38922;-77
2021/07/29 11:04:52;;;;;;;8.10;1.90;;;;;;;;;;5028784;28;37243;-77
2021/07/29 11:07:19;;;;;;;9.82;2.20;;;;;;;;;;5022882;28;39468;-78
2021/07/29 11:09:49;;;;;;;11.93;3.05;;;;;;;;;;5024241;28;38081;-78
2021/07/29 11:12:20;;;;;;;7.63;1.92;;;;;;;;;;5031535;28;38541;-78
2021/07/29 11:14:46;;;;;;;9.10;2.30;;;;;;;;;;5035305;28;40050;-79
2021/07/29 11:17:22;;;;;;;11.02;2.28;;;;;;;;;;5048513;28;40672;-79
2021/07/29 11:19:51;;;;;;;11.27;3.00;;;;;;;;;;5051978;28;37543;-77
2021/07/29 11:22:17;;;;;;;16.58;3.25;;;;;;;;;;5043552;28;41605;-79
2021/07/29 11:24:46;;;;;;;12.68;3.38;;;;;;;;;;5071079;28;37628;-78
2021/07/29 11:27:13;;;;;;;10.77;2.90;;;;;;;;;;5069482;28;39639;-77
2021/07/29 11:29:56;;;;;;;10.75;2.63;;;;;;;;;;5071040;28;38658;-78
2021/07/29 11:32:22;;;;;;;15.70;3.10;;;;;;;;;;5040588;28;38558;-77
2021/07/29 11:35:15;;;;;;;11.05;2.97;;;;;;;;;;5039202;28;35987;-78
2021/07/29 11:37:45;;;;;;;12.05;3.33;;;;;;;;;;5045003;28;46615;-78
2021/07/29 11:40:24;;;;;;;12.10;2.50;;;;;;;;;;5049391;28;39663;-75
2021/07/29 11:42:51;;;;;;;11.82;2.10;;;;;;;;;;5051156;28;39858;-76
2021/07/29 11:45:21;;;;;;;7.00;2.08;;;;;;;;;;5065068;28;38327;-75
2021/07/29 11:47:47;;;;;;;9.25;2.40;;;;;;;;;;5071349;28;39839;-75
2021/07/29 11:50:16;;;;;;;11.63;2.60;;;;;;;;;;5067845;28;38223;-75
2021/07/29 11:52:53;;;;;;;9.43;2.05;;;;;;;;;;5052596;28;40499;-75
2021/07/29 11:55:21;;;;;;;7.68;2.10;;;;;;;;;;5067876;28;37697;-76
2021/07/29 11:57:51;;;;;;;8.63;2.10;;;;;;;;;;5041276;28;41286;-75
2021/07/29 12:00:27;;;;;;;7.75;2.47;;;;;;;;;;5050463;28;37879;-76
2021/07/29 12:02:55;;;;;;;9.90;1.85;;;;;;;;;;5070132;28;39188;-75
2021/07/29 12:05:22;;;;;;;3.97;1.33;;;;;;;;;;5069034;28;37873;-75
2021/07/29 12:07:48;;;;;;;8.68;3.15;;;;;;;;;;5051670;28;39080;-75
2021/07/29 12:10:17;;;;;;;9.55;2.20;;;;;;;;;;5051834;28;37432;-76
2021/07/29 12:12:43;;;;;;;5.65;1.55;;;;;;;;;;5053965;28;36977;-76
2021/07/29 12:15:13;;;;;;;8.50;1.75;;;;;;;;;;5057266;28;37059;-76
2021/07/29 12:17:40;;;;;;;10.20;2.60;;;;;;;;;;5041110;28;38122;-76
2021/07/29 12:20:07;;;;;;;8.48;2.63;;;;;;;;;;5067609;28;38785;-77
2021/07/29 12:22:38;;;;;;;8.38;2.13;;;;;;;;;;5071983;28;38271;-77
2021/07/29 12:25:05;;;;;;;6.80;2.35;;;;;;;;;;5071393;28;37343;-76
2021/07/29 12:27:44;;;;;;;10.25;2.35;;;;;;;;;;5061360;28;49084;-76
2021/07/29 12:30:29;;;;;;;13.93;2.97;;;;;;;;;;5068243;28;39771;-77
2021/07/29 12:33:07;;;;;;;13.45;2.60;;;;;;;;;;5068388;28;37150;-77
2021/07/29 12:35:33;;;;;;;10.68;2.78;;;;;;;;;;5047143;28;49215;-77
2021/07/29 12:37:59;;;;;;;12.05;3.00;;;;;;;;;;5069915;28;38935;-77
2021/07/29 12:40:27;;;;;;;8.68;2.45;;;;;;;;;;5056461;28;41736;-77
2021/07/29 12:42:53;;;;;;;7.95;1.98;;;;;;;;;;5076376;22;40718;-77
2021/07/29 12:45:20;;;;;;;6.60;2.05;;;;;;;;;;5031592;28;37102;-78
2021/07/29 12:48:05;;;;;;;7.57;1.83;;;;;;;;;;5026013;28;39603;-78
2021/07/29 12:50:38;;;;;;;6.47;2.13;;;;;;;;;;5030598;28;48611;-78
2021/07/29 12:53:11;;;;;;;6.45;2.10;;;;;;;;;;5032720;28;37461;-78
2021/07/29 12:55:38;;;;;;;9.85;2.22;;;;;;;;;;5033600;28;36910;-78
2021/07/29 12:58:06;;;;;;;8.18;2.30;;;;;;;;;;5032671;28;39064;-78
2021/07/29 13:00:32;;;;;;;10.05;2.10;;;;;;;;;;5030655;28;38118;-79
2021/07/29 13:02:58;;;;;;;11.68;2.08;;;;;;;;;;5030076;28;37201;-78
2021/07/29 13:05:25;;;;;;;8.50;2.42;;;;;;;;;;5029242;28;35195;-78
2021/07/29 13:07:53;;;;;;;7.45;2.13;;;;;;;;;;5034472;28;39991;-78
2021/07/29 13:10:19;;;;;;;7.75;2.25;;;;;;;;;;5030410;28;38986;-78
2021/07/29 13:12:47;;;;;;;6.45;1.90;;;;;;;;;;5047471;28;39017;-78
2021/07/29 13:15:14;;;;;;;8.40;2.17;;;;;;;;;;5030201;28;37982;-78
2021/07/29 13:17:40;;;;;;;8.70;2.50;;;;;;;;;;5031808;28;39549;-78
2021/07/29 13:20:07;;;;;;;7.05;2.40;;;;;;;;;;5029354;28;38703;-78
2021/07/29 13:22:33;;;;;;;9.95;2.22;;;;;;;;;;5031111;28;39458;-77
2021/07/29 13:25:00;;;;;;;9.07;2.28;;;;;;;;;;5030003;28;36993;-77
2021/07/29 13:27:26;;;;;;;6.03;1.92;;;;;;;;;;5027702;28;38737;-77
2021/07/29 13:29:53;;;;;;;8.15;2.22;;;;;;;;;;5030545;28;38791;-78
2021/07/29 13:32:19;;;;;;;9.25;2.28;;;;;;;;;;5027757;28;37998;-80
2021/07/29 13:34:45;;;;;;;7.25;1.92;;;;;;;;;;5027826;28;37148;-79
2021/07/29 13:37:12;;;;;;;9.50;2.17;;;;;;;;;;5042991;28;39578;-79
2021/07/29 13:39:38;;;;;;;5.20;1.55;;;;;;;;;;5043634;28;39160;-79
2021/07/29 13:42:05;;;;;;;7.28;1.58;;;;;;;;;;5029169;28;38389;-80
2021/07/29 13:44:31;;;;;;;7.97;1.58;;;;;;;;;;5045967;28;37322;-77
2021/07/29 13:46:58;;;;;;;6.00;1.73;;;;;;;;;;5051775;28;39487;-78
2021/07/29 13:49:25;;;;;;;4.13;1.50;;;;;;;;;;5031623;28;38824;-77
2021/07/29 13:51:51;;;;;;;7.22;1.55;;;;;;;;;;5048187;28;38880;-78
2021/07/29 13:54:17;;;;;;;4.38;1.70;;;;;;;;;;5050234;28;38368;-77
2021/07/29 13:56:44;;;;;;;6.65;1.48;;;;;;;;;;5051458;28;40048;-77
2021/07/29 13:59:10;;;;;;;6.68;1.38;;;;;;;;;;5023978;28;38528;-78
2021/07/29 14:01:36;;;;;;;5.35;1.58;;;;;;;;;;5046830;28;39257;-75
2021/07/29 14:04:03;;;;;;;6.75;1.35;;;;;;;;;;5049796;28;35227;-80
2021/07/29 14:06:29;;;;;;;9.43;1.92;;;;;;;;;;5045853;28;39498;-78
2021/07/29 14:08:55;;;;;;;5.55;1.60;;;;;;;;;;5051078;28;38698;-78
2021/07/29 14:11:22;;;;;;;7.85;1.50;;;;;;;;;;5029518;28;38770;-77
2021/07/29 14:13:48;;;;;;;4.97;1.67;;;;;;;;;;5048908;28;37182;-78
2021/07/29 14:16:15;;;;;;;5.45;1.30;;;;;;;;;;5030657;28;39869;-77
2021/07/29 14:18:46;;;;;;;5.65;1.70;;;;;;;;;;5030374;28;39162;-78
2021/07/29 14:21:15;;;;;;;4.00;1.60;;;;;;;;;;5028829;28;38062;-77
2021/07/29 14:23:41;;;;;;;7.10;1.58;;;;;;;;;;5047990;28;37817;-77
2021/07/29 14:26:08;;;;;;;5.75;1.58;;;;;;;;;;5028390;28;39208;-77
2021/07/29 14:28:34;;;;;;;5.22;1.65;;;;;;;;;;5030504;28;38753;-78
2021/07/29 14:31:00;;;;;;;4.78;1.77;;;;;;;;;;5048412;28;38914;-77
2021/07/29 14:33:27;;;;;;;4.88;1.45;;;;;;;;;;5029528;28;38677;-77
2021/07/29 14:35:54;;;;;;;4.18;1.40;;;;;;;;;;5009569;28;39934;-78
2021/07/29 14:38:20;;;;;;;3.95;1.42;;;;;;;;;;5030804;28;38735;-78
2021/07/29 14:40:47;;;;;;;5.93;1.75;;;;;;;;;;5031273;28;39201;-78
2021/07/29 14:43:13;;;;;;;5.90;1.48;;;;;;;;;;5014040;28;37538;-77